Time;durP1;ratioP1;P1;durP2;ratioP2;P2;SDS_P1;SDS_P2;PMS_P1;PMS_P2;Temp;Humidity;BMP_temperature;BMP_pressure;BME280_temperature;BME280_humidity;BME280_pressure;Samples;Min_cycle;Max_cycle;Signal;HPM_P1;HPM_P2
2021/04/20 00:02:11;;;;;;;39.08;21.67;;;11.40;92.70;;;;;;6108147;23;20009;-94
2021/04/20 00:04:37;;;;;;;34.60;21.15;;;11.40;92.70;;;;;;6108401;23;20004;-94
2021/04/20 00:07:03;;;;;;;32.22;20.73;;;11.30;92.80;;;;;;6108382;23;20006;-94
2021/04/20 00:09:28;;;;;;;33.22;19.92;;;11.30;92.80;;;;;;6108250;23;20037;-94
2021/04/20 00:11:54;;;;;;;33.72;21.10;;;11.30;92.90;;;;;;6108445;23;20010;-93
2021/04/20 00:14:22;;;;;;;33.92;21.58;;;11.30;92.80;;;;;;6108142;23;20006;-93
2021/04/20 00:16:53;;;;;;;32.38;19.33;;;11.20;92.90;;;;;;6107531;23;20009;-92
2021/04/20 00:19:19;;;;;;;33.38;22.10;;;11.30;92.90;;;;;;6108229;23;20002;-91
2021/04/20 00:21:45;;;;;;;31.55;21.55;;;11.20;92.80;;;;;;6107894;23;20080;-91
2021/04/20 00:24:10;;;;;;;32.58;20.60;;;11.20;92.90;;;;;;6108352;23;20017;-92
2021/04/20 00:26:39;;;;;;;31.10;19.88;;;11.20;92.80;;;;;;6108367;23;20024;-92
2021/04/20 00:29:05;;;;;;;32.55;21.00;;;11.30;92.80;;;;;;6107871;23;20376;-92
2021/04/20 00:31:31;;;;;;;33.13;20.83;;;11.20;92.80;;;;;;6108189;23;20010;-93
2021/04/20 00:33:56;;;;;;;37.47;20.45;;;11.30;92.90;;;;;;6108154;23;20076;-93
2021/04/20 00:36:22;;;;;;;31.20;20.85;;;11.30;92.90;;;;;;6108080;23;20017;-91
2021/04/20 00:38:48;;;;;;;34.70;22.08;;;11.30;92.80;;;;;;6108197;23;20321;-93
2021/04/20 00:41:14;;;;;;;37.03;22.48;;;11.30;92.60;;;;;;6108200;23;20208;-93
2021/04/20 00:43:48;;;;;;;33.63;21.50;;;11.30;92.60;;;;;;6107886;23;20018;-94
2021/04/20 00:46:19;;;;;;;36.13;21.65;;;11.20;92.60;;;;;;6108337;23;20005;-94
2021/04/20 00:48:52;;;;;;;40.20;23.10;;;11.30;92.80;;;;;;6108103;23;20021;-93
2021/04/20 00:51:22;;;;;;;35.00;22.60;;;11.10;93.00;;;;;;6107823;23;20010;-94
2021/04/20 00:53:48;;;;;;;36.80;23.00;;;11.10;93.00;;;;;;6107636;23;20016;-93
2021/04/20 00:56:18;;;;;;;33.83;21.17;;;11.10;93.10;;;;;;6107822;23;20025;-93
2021/04/20 00:58:44;;;;;;;35.88;21.27;;;11.10;93.10;;;;;;6108098;23;20013;-93
2021/04/20 01:01:10;;;;;;;42.80;23.45;;;11.10;93.20;;;;;;6108047;23;20013;-92
2021/04/20 01:03:36;;;;;;;36.30;20.23;;;11.10;93.30;;;;;;6108169;23;20006;-92
2021/04/20 01:06:03;;;;;;;37.58;22.50;;;11.10;93.40;;;;;;6108152;23;20017;-93
2021/04/20 01:08:48;;;;;;;39.40;23.33;;;11.10;93.60;;;;;;6107556;23;20006;-96
2021/04/20 01:11:14;;;;;;;36.88;22.60;;;11.10;93.70;;;;;;6107606;23;20010;-96
2021/04/20 01:13:40;;;;;;;36.63;23.40;;;11.00;93.80;;;;;;6108050;23;20006;-95
2021/04/20 01:16:06;;;;;;;39.35;24.30;;;11.00;94.00;;;;;;6107994;23;20459;-94
2021/04/20 01:18:35;;;;;;;39.80;24.10;;;10.90;94.10;;;;;;6107815;23;20089;-93
2021/04/20 01:21:11;;;;;;;43.45;25.65;;;10.80;94.50;;;;;;6107587;23;20013;-94
2021/04/20 01:23:56;;;;;;;38.72;23.98;;;10.70;94.90;;;;;;6109577;23;20037;-93
2021/04/20 01:26:25;;;;;;;42.50;25.80;;;10.60;95.00;;;;;;6108120;23;20006;-95
2021/04/20 01:28:51;;;;;;;39.53;24.80;;;10.60;95.10;;;;;;6107354;23;20087;-93
2021/04/20 01:31:17;;;;;;;39.17;21.80;;;10.60;95.20;;;;;;6107480;23;20010;-93
2021/04/20 01:33:43;;;;;;;36.58;23.48;;;10.60;95.10;;;;;;6107172;23;20346;-94
2021/04/20 01:36:14;;;;;;;42.90;24.27;;;10.60;95.00;;;;;;6107714;23;20002;-95
2021/04/20 01:38:42;;;;;;;43.17;24.02;;;10.60;95.00;;;;;;6107174;23;20069;-94
2021/04/20 01:41:07;;;;;;;37.53;23.80;;;10.60;95.00;;;;;;6107472;23;20006;-95
2021/04/20 01:43:34;;;;;;;36.35;22.15;;;10.60;95.00;;;;;;6107556;23;20388;-94
2021/04/20 01:45:59;;;;;;;34.55;22.98;;;10.60;94.90;;;;;;6107467;23;20057;-94
2021/04/20 01:48:25;;;;;;;36.50;22.63;;;10.60;94.90;;;;;;6107514;23;20013;-96
2021/04/20 01:50:51;;;;;;;37.53;22.85;;;10.60;94.90;;;;;;6107904;23;20009;-95
2021/04/20 01:53:17;;;;;;;36.30;21.17;;;10.60;94.80;;;;;;6107459;23;20002;-94
2021/04/20 01:55:43;;;;;;;39.67;23.27;;;10.60;94.80;;;;;;6107435;23;20122;-94
2021/04/20 01:58:09;;;;;;;42.17;23.75;;;10.50;94.80;;;;;;6107341;23;19998;-95
2021/04/20 02:00:38;;;;;;;40.30;24.13;;;10.50;94.80;;;;;;6107869;23;20056;-94
2021/04/20 02:03:16;;;;;;;36.00;22.27;;;10.50;94.80;;;;;;6106705;23;20089;-94
2021/04/20 02:05:41;;;;;;;35.75;22.88;;;10.50;94.80;;;;;;6107152;23;20017;-94
2021/04/20 02:08:07;;;;;;;33.78;21.38;;;10.50;94.80;;;;;;6107952;23;20001;-96
2021/04/20 02:10:33;;;;;;;38.78;24.17;;;10.50;94.80;;;;;;6107996;23;20005;-95
2021/04/20 02:12:59;;;;;;;38.67;23.30;;;10.40;95.00;;;;;;6108043;23;20009;-96
2021/04/20 02:15:25;;;;;;;37.97;23.80;;;10.30;95.20;;;;;;6108360;23;20010;-93
2021/04/20 02:17:52;;;;;;;37.05;23.55;;;10.30;95.20;;;;;;6110752;23;20088;-92
2021/04/20 02:20:19;;;;;;;37.63;22.63;;;10.30;95.10;;;;;;6107774;23;20061;-95
2021/04/20 02:22:49;;;;;;;38.50;22.77;;;10.30;95.20;;;;;;6107334;23;20006;-96
2021/04/20 02:25:17;;;;;;;39.60;21.83;;;10.30;95.20;;;;;;6107072;23;20010;-95
2021/04/20 02:27:45;;;;;;;37.63;23.10;;;10.30;95.20;;;;;;6107603;23;20010;-95
2021/04/20 02:30:12;;;;;;;39.20;24.02;;;10.30;95.20;;;;;;6107216;23;20630;-95
2021/04/20 02:32:39;;;;;;;40.67;24.60;;;10.30;95.10;;;;;;6107306;23;20006;-93
2021/04/20 02:35:10;;;;;;;43.10;23.65;;;10.30;95.20;;;;;;6107162;23;20353;-93
2021/04/20 02:37:36;;;;;;;45.10;24.73;;;10.30;95.20;;;;;;6107244;23;20001;-93
2021/04/20 02:40:06;;;;;;;38.22;21.88;;;10.30;95.40;;;;;;6107170;23;20002;-94
2021/04/20 02:42:33;;;;;;;42.35;22.50;;;10.30;95.30;;;;;;6107337;23;20610;-94
2021/04/20 02:45:03;;;;;;;43.42;23.77;;;10.30;95.30;;;;;;6108019;23;20006;-93
2021/04/20 02:47:29;;;;;;;40.28;23.55;;;10.30;95.30;;;;;;6108907;23;20006;-94
2021/04/20 02:49:56;;;;;;;42.65;24.58;;;10.30;95.30;;;;;;6109234;23;20077;-93
2021/04/20 02:52:23;;;;;;;40.03;24.40;;;10.30;95.30;;;;;;6109153;23;20025;-93
2021/04/20 02:54:50;;;;;;;40.45;24.00;;;10.40;95.20;;;;;;6109243;23;20006;-94
2021/04/20 02:57:17;;;;;;;42.22;23.98;;;10.30;95.30;;;;;;6108059;23;20033;-95
2021/04/20 02:59:43;;;;;;;44.28;25.65;;;10.30;95.30;;;;;;6109295;23;20006;-93
2021/04/20 03:02:10;;;;;;;43.38;25.38;;;10.30;95.30;;;;;;6108855;23;20422;-94
2021/04/20 03:04:38;;;;;;;41.95;23.65;;;10.30;95.40;;;;;;6108718;23;20046;-94
2021/04/20 03:07:04;;;;;;;38.35;23.00;;;10.30;95.40;;;;;;6108659;23;20013;-95
2021/04/20 03:09:30;;;;;;;39.25;24.55;;;10.20;95.40;;;;;;6108566;23;20013;-93
2021/04/20 03:11:58;;;;;;;44.50;25.02;;;10.30;95.40;;;;;;6133993;23;20088;-94
2021/04/20 03:14:26;;;;;;;39.28;22.92;;;10.20;95.40;;;;;;6108511;23;20006;-94
2021/04/20 03:16:52;;;;;;;43.22;22.52;;;10.20;95.40;;;;;;6133824;23;20001;-94
2021/04/20 03:19:18;;;;;;;40.50;23.88;;;10.20;95.40;;;;;;6134002;23;20005;-93
2021/04/20 03:21:45;;;;;;;40.97;23.27;;;10.30;95.30;;;;;;6108703;23;20005;-93
2021/04/20 03:24:40;;;;;;;34.13;22.77;;;10.30;95.10;;;;;;6108585;23;20606;-94
2021/04/20 03:27:06;;;;;;;39.40;23.83;;;10.30;95.10;;;;;;6108443;23;20370;-94
2021/04/20 03:29:32;;;;;;;36.63;23.25;;;10.30;95.10;;;;;;6108171;23;20014;-95
2021/04/20 03:31:57;;;;;;;40.15;23.90;;;10.30;95.00;;;;;;6108586;23;20092;-92
2021/04/20 03:34:30;;;;;;;40.53;22.92;;;10.30;94.90;;;;;;6108430;23;20009;-93
2021/04/20 03:37:01;;;;;;;33.42;20.38;;;10.30;94.80;;;;;;6108614;23;20354;-93
2021/04/20 03:39:29;;;;;;;34.58;20.23;;;10.40;94.70;;;;;;6110892;23;20006;-92
2021/04/20 03:42:02;;;;;;;36.22;22.00;;;10.40;94.60;;;;;;6109598;23;20085;-92
2021/04/20 03:44:35;;;;;;;37.78;22.25;;;10.40;94.50;;;;;;6108493;23;20006;-94
2021/04/20 03:47:06;;;;;;;31.70;20.42;;;10.40;94.40;;;;;;6108267;23;20006;-92
2021/04/20 03:49:36;;;;;;;37.42;21.83;;;10.40;94.40;;;;;;6108123;23;20212;-93
2021/04/20 03:52:05;;;;;;;37.47;22.83;;;10.40;94.40;;;;;;6108248;23;20029;-94
2021/04/20 03:54:33;;;;;;;38.38;22.77;;;10.40;94.40;;;;;;6108033;23;20064;-93
2021/04/20 03:57:01;;;;;;;37.05;22.88;;;10.50;94.40;;;;;;6108575;23;20021;-93
2021/04/20 03:59:28;;;;;;;39.80;23.45;;;10.50;94.50;;;;;;6108307;23;20015;-93
2021/04/20 04:01:57;;;;;;;37.45;22.67;;;10.40;94.40;;;;;;6108698;23;20006;-93
2021/04/20 04:04:30;;;;;;;41.70;23.73;;;10.40;94.50;;;;;;6108225;23;20002;-93
2021/04/20 04:06:58;;;;;;;39.63;24.10;;;10.30;94.70;;;;;;6107966;23;20072;-94
2021/04/20 04:09:24;;;;;;;36.20;22.38;;;10.30;94.90;;;;;;6108304;23;20414;-93
2021/04/20 04:11:58;;;;;;;36.78;21.92;;;10.30;94.70;;;;;;6109551;23;20010;-91
2021/04/20 04:14:27;;;;;;;38.63;23.13;;;10.30;94.70;;;;;;6138611;23;20006;-91
2021/04/20 04:16:59;;;;;;;41.03;23.50;;;10.20;94.70;;;;;;6134132;23;20010;-93
2021/04/20 04:19:27;;;;;;;39.40;22.83;;;10.20;94.80;;;;;;6108527;23;20002;-93
2021/04/20 04:22:01;;;;;;;39.85;24.08;;;10.20;94.80;;;;;;6107969;23;20002;-93
2021/04/20 04:24:34;;;;;;;37.00;21.95;;;10.20;94.80;;;;;;6108162;23;20016;-93
2021/04/20 04:27:04;;;;;;;38.90;23.23;;;10.20;94.80;;;;;;6108271;23;20106;-94
2021/04/20 04:29:30;;;;;;;44.90;22.75;;;10.20;94.80;;;;;;6133236;23;20017;-93
2021/04/20 04:31:56;;;;;;;36.03;21.33;;;10.20;94.70;;;;;;6107652;23;20044;-94
2021/04/20 04:34:23;;;;;;;36.38;22.45;;;10.20;94.70;;;;;;6106990;23;20010;-93
2021/04/20 04:36:49;;;;;;;37.47;21.83;;;10.20;94.70;;;;;;6107758;23;20006;-93
2021/04/20 04:39:17;;;;;;;36.70;22.23;;;10.30;94.60;;;;;;6107446;23;20002;-93
2021/04/20 04:41:45;;;;;;;40.55;21.83;;;10.30;94.70;;;;;;6107912;23;20029;-93
2021/04/20 04:44:11;;;;;;;39.22;23.75;;;10.30;94.50;;;;;;6103937;23;20057;-93
2021/04/20 04:46:39;;;;;;;33.90;20.77;;;10.30;94.50;;;;;;6131957;23;20072;-93
2021/04/20 04:49:06;;;;;;;33.95;21.30;;;10.30;94.40;;;;;;6107529;23;20006;-94
2021/04/20 04:51:32;;;;;;;33.83;19.42;;;10.40;94.10;;;;;;6109250;23;20005;-92
2021/04/20 04:53:58;;;;;;;35.85;20.30;;;10.40;93.80;;;;;;6107814;23;20010;-92
2021/04/20 04:56:26;;;;;;;37.38;21.85;;;10.30;93.90;;;;;;6105652;23;20017;-91
2021/04/20 04:58:53;;;;;;;29.30;19.52;;;10.30;94.00;;;;;;6107360;23;20084;-93
2021/04/20 05:01:20;;;;;;;31.15;18.83;;;10.30;93.70;;;;;;6107882;23;20104;-93
2021/04/20 05:03:45;;;;;;;32.60;18.52;;;10.30;93.50;;;;;;6107219;23;20134;-93
2021/04/20 05:06:16;;;;;;;37.35;17.85;;;10.30;93.50;;;;;;6106663;23;20406;-92
2021/04/20 05:08:42;;;;;;;29.42;18.83;;;10.30;93.40;;;;;;6107166;23;20017;-93
2021/04/20 05:11:08;;;;;;;29.83;17.90;;;10.30;93.30;;;;;;6107604;23;20373;-93
2021/04/20 05:13:34;;;;;;;31.42;17.95;;;10.20;93.40;;;;;;6107086;23;20009;-92
2021/04/20 05:16:07;;;;;;;30.92;18.73;;;10.30;93.40;;;;;;6107489;23;20010;-92
2021/04/20 05:18:35;;;;;;;24.25;16.38;;;10.40;93.50;;;;;;6107503;23;20002;-94
2021/04/20 05:21:01;;;;;;;26.50;17.48;;;10.40;93.20;;;;;;6107916;23;20013;-92
2021/04/20 05:23:27;;;;;;;27.60;15.48;;;10.40;93.00;;;;;;6106912;23;20002;-92
2021/04/20 05:25:53;;;;;;;29.00;14.80;;;10.40;92.60;;;;;;6107541;23;20006;-93
2021/04/20 05:28:20;;;;;;;24.00;14.57;;;10.40;92.60;;;;;;6106852;23;20345;-92
2021/04/20 05:30:45;;;;;;;22.85;14.80;;;10.40;92.60;;;;;;6107690;23;20013;-93
2021/04/20 05:33:13;;;;;;;25.27;16.05;;;10.50;92.60;;;;;;6107502;23;20089;-92
2021/04/20 05:35:47;;;;;;;26.38;15.43;;;10.50;92.40;;;;;;6106726;23;20009;-94
2021/04/20 05:38:13;;;;;;;23.35;14.07;;;10.50;92.40;;;;;;6106722;23;20401;-93
2021/04/20 05:40:41;;;;;;;24.92;15.07;;;10.50;92.20;;;;;;6106534;23;20013;-91
2021/04/20 05:43:16;;;;;;;18.60;12.27;;;10.40;91.70;;;;;;6106357;23;20006;-92
2021/04/20 05:45:42;;;;;;;19.15;11.75;;;10.40;91.60;;;;;;6106875;23;20017;-92
2021/04/20 05:48:10;;;;;;;21.83;12.07;;;10.40;91.60;;;;;;6106066;23;20096;-92
2021/04/20 05:50:35;;;;;;;17.60;11.77;;;10.30;91.80;;;;;;6107190;23;20217;-93
2021/04/20 05:53:01;;;;;;;18.90;10.85;;;10.30;91.70;;;;;;6106852;23;20022;-92
2021/04/20 05:55:29;;;;;;;18.92;10.95;;;10.20;91.50;;;;;;6107397;23;20006;-93
2021/04/20 05:57:55;;;;;;;16.77;11.13;;;10.20;91.60;;;;;;6106388;23;20105;-92
2021/04/20 06:00:23;;;;;;;21.88;12.07;;;10.20;91.60;;;;;;6106763;23;20002;-93
2021/04/20 06:02:51;;;;;;;23.17;12.57;;;10.20;91.40;;;;;;6107556;23;20023;-93
2021/04/20 06:05:22;;;;;;;18.85;11.23;;;10.20;91.30;;;;;;6107537;23;20497;-89
2021/04/20 06:07:51;;;;;;;19.67;11.35;;;10.10;91.70;;;;;;6107502;23;20002;-91
2021/04/20 06:10:17;;;;;;;20.17;11.77;;;10.20;91.80;;;;;;6106100;23;20013;-93
2021/04/20 06:12:46;;;;;;;17.17;11.80;;;10.20;91.70;;;;;;6132007;23;20006;-93
2021/04/20 06:15:15;;;;;;;18.70;10.25;;;10.30;91.70;;;;;;6130701;23;20010;-93
2021/04/20 06:17:41;;;;;;;23.00;13.63;;;10.30;91.80;;;;;;6131513;23;20013;-90
2021/04/20 06:20:11;;;;;;;26.02;15.57;;;10.40;92.20;;;;;;6107826;23;20006;-92
2021/04/20 06:22:39;;;;;;;21.10;13.45;;;10.40;92.30;;;;;;6108556;23;20013;-93
2021/04/20 06:25:09;;;;;;;23.88;15.13;;;10.50;92.10;;;;;;6108036;23;20012;-93
2021/04/20 06:27:35;;;;;;;20.55;13.38;;;10.60;92.00;;;;;;6107811;23;20006;-93
2021/04/20 06:30:00;;;;;;;23.15;15.07;;;10.60;92.00;;;;;;6108116;23;20060;-93
2021/04/20 06:32:26;;;;;;;25.13;14.77;;;10.70;91.90;;;;;;6108484;23;20021;-92
2021/04/20 06:34:52;;;;;;;20.83;12.30;;;10.80;92.00;;;;;;6108516;23;20009;-93
2021/04/20 06:37:18;;;;;;;17.67;11.70;;;10.80;91.50;;;;;;6108268;23;20017;-94
2021/04/20 06:39:50;;;;;;;21.83;12.30;;;10.90;91.10;;;;;;6108531;23;20013;-93
2021/04/20 06:42:20;;;;;;;20.83;12.65;;;11.00;90.90;;;;;;6108251;23;20002;-92
2021/04/20 06:44:54;;;;;;;26.40;13.27;;;11.00;91.50;;;;;;6108514;23;20012;-92
2021/04/20 06:47:23;;;;;;;22.85;13.10;;;11.00;91.70;;;;;;6108193;23;20002;-93
2021/04/20 06:49:56;;;;;;;20.58;12.98;;;11.10;91.30;;;;;;6108434;23;20006;-94
2021/04/20 06:52:44;;;;;;;16.60;11.13;;;11.20;91.20;;;;;;6108041;23;20013;-94
2021/04/20 06:55:19;;;;;;;20.42;11.20;;;11.30;90.40;;;;;;6107237;23;20006;-93
2021/04/20 06:57:49;;;;;;;15.07;10.00;;;11.40;90.20;;;;;;6108560;23;20021;-94
2021/04/20 07:00:18;;;;;;;22.05;10.50;;;11.50;90.00;;;;;;6108090;23;20006;-94
2021/04/20 07:03:07;;;;;;;12.18;8.00;;;11.60;89.10;;;;;;6108205;23;20006;-94
2021/04/20 07:05:39;;;;;;;15.25;8.32;;;11.70;89.10;;;;;;6108496;23;20013;-94
2021/04/20 07:08:27;;;;;;;23.58;8.43;;;11.80;88.90;;;;;;6108225;23;20013;-94
2021/04/20 07:10:56;;;;;;;14.63;7.97;;;11.90;86.90;;;;;;6108385;23;20071;-93
2021/04/20 07:13:26;;;;;;;13.23;8.25;;;12.10;86.80;;;;;;6107768;23;20209;-95
2021/04/20 07:15:56;;;;;;;16.42;8.70;;;12.10;87.00;;;;;;6107662;23;20006;-94
2021/04/20 07:19:02;;;;;;;15.05;8.88;;;12.20;87.00;;;;;;6107999;23;20334;-93
2021/04/20 07:21:57;;;;;;;14.05;9.30;;;12.30;86.80;;;;;;6132320;23;20081;-93
2021/04/20 07:24:53;;;;;;;14.10;8.23;;;12.40;86.90;;;;;;6108379;23;20251;-94
2021/04/20 07:31:29;;;;;;;13.15;7.03;;;12.60;83.20;;;;;;6133287;23;20017;-96
2021/04/20 07:34:48;;;;;;;14.90;8.90;;;12.70;82.90;;;;;;6074771;23;20237;-96
2021/04/20 07:37:56;;;;;;;11.00;7.15;;;12.80;82.10;;;;;;6107763;23;20006;-94
2021/04/20 07:40:31;;;;;;;13.38;6.97;;;12.90;83.90;;;;;;6107547;23;20002;-95
2021/04/20 10:13:18;;;;;;;8.38;4.38;;;17.00;65.80;;;;;;5908586;24;20097;-95
2021/04/20 10:16:29;;;;;;;8.07;4.15;;;17.20;66.10;;;;;;5929741;23;20313;-96
2021/04/20 10:19:32;;;;;;;10.30;3.97;;;17.40;64.70;;;;;;6013335;23;20007;-96
2021/04/20 10:29:26;;;;;;;6.03;3.75;;;18.00;59.30;;;;;;6014111;23;20032;-94
2021/04/20 10:41:43;;;;;;;7.90;4.38;;;18.10;59.60;;;;;;6129004;23;20014;-95
2021/04/20 10:44:43;;;;;;;7.68;3.42;;;18.20;60.70;;;;;;6104702;23;20038;-96
2021/04/20 10:47:52;;;;;;;8.65;3.17;;;18.30;59.30;;;;;;6104962;23;20077;-94
2021/04/20 10:57:47;;;;;;;11.27;3.92;;;18.30;55.40;;;;;;6132206;23;20030;-95
2021/04/20 11:04:13;;;;;;;9.45;4.50;;;18.30;58.00;;;;;;6131795;23;20010;-95
2021/04/20 11:07:04;;;;;;;8.65;4.07;;;18.50;57.30;;;;;;6107218;23;20095;-94
2021/04/20 11:10:26;;;;;;;7.28;4.15;;;18.40;58.60;;;;;;6108386;23;20009;-94
2021/04/20 11:13:50;;;;;;;7.03;3.78;;;18.30;58.00;;;;;;6072691;23;20021;-94
2021/04/20 11:20:49;;;;;;;6.78;4.43;;;18.40;56.50;;;;;;5936331;24;20331;-93
2021/04/20 11:23:26;;;;;;;8.63;4.50;;;18.60;56.10;;;;;;6035934;23;20012;-93
2021/04/20 11:26:09;;;;;;;7.82;4.43;;;18.70;58.80;;;;;;6019639;23;20011;-94
2021/04/20 11:32:28;;;;;;;6.88;3.42;;;19.00;57.30;;;;;;6073329;23;20018;-94
2021/04/20 11:41:54;;;;;;;7.40;4.20;;;19.40;57.20;;;;;;6092708;23;20069;-95
2021/04/20 11:45:03;;;;;;;;;;;;;;;;;;;;;
2021/04/20 11:47:40;;;;;;;8.35;4.47;;;19.60;55.10;;;;;;6133729;23;20022;-94
2021/04/20 11:57:19;;;;;;;5.47;4.30;;;19.90;53.50;;;;;;6052407;23;20014;-94
2021/04/20 12:00:24;;;;;;;10.88;3.45;;;19.90;53.20;;;;;;6076390;23;20039;-95
2021/04/20 12:13:44;;;;;;;9.23;4.68;;;19.90;54.40;;;;;;5877275;24;20041;-96
2021/04/20 12:20:13;;;;;;;8.00;3.30;;;20.00;52.60;;;;;;5959636;24;20073;-94
2021/04/20 12:22:39;;;;;;;7.88;3.88;;;20.20;51.80;;;;;;5968406;23;20290;-91
2021/04/20 12:29:31;;;;;;;6.40;3.97;;;20.30;51.80;;;;;;6072424;23;20009;-95
2021/04/20 12:36:38;;;;;;;;;;;;;;;;;;;;;
2021/04/20 13:13:17;;;;;;;12.13;4.75;;;20.50;50.10;;;;;;6140111;23;20026;-96
2021/04/20 13:19:09;;;;;;;10.98;3.75;;;20.50;50.20;;;;;;6135807;23;20369;-93
2021/04/20 17:30:21;;;;;;;14.02;8.27;;;16.90;68.70;;;;;;6133596;23;20085;-95
2021/04/20 17:37:15;;;;;;;;;;;;;;;;;;;;;
2021/04/20 17:40:50;;;;;;;;;;;;;;;;;;;;;
2021/04/20 17:53:52;;;;;;;10.68;7.97;;;15.80;75.10;;;;;;6120959;23;20017;-90
2021/04/20 17:56:52;;;;;;;;;;;;;;;;;;;;;
2021/04/20 17:59:50;;;;;;;11.45;7.53;;;15.60;74.60;;;;;;6071787;23;20034;-94
2021/04/20 18:03:09;;;;;;;10.55;8.75;;;15.50;74.70;;;;;;6046410;23;20006;-93
2021/04/20 18:06:24;;;;;;;10.10;6.35;;;15.40;74.40;;;;;;6047746;23;20003;-95
2021/04/20 18:16:20;;;;;;;7.65;6.25;;;15.30;73.10;;;;;;6074331;23;20063;-92
2021/04/20 18:19:40;;;;;;;8.65;6.10;;;15.20;73.00;;;;;;6050199;23;20364;-92
2021/04/20 18:22:41;;;;;;;10.65;5.43;;;15.10;73.40;;;;;;6003113;23;20007;-91
2021/04/20 18:25:27;;;;;;;7.82;5.55;;;15.00;73.40;;;;;;6049434;23;20027;-91
2021/04/20 18:28:30;;;;;;;9.32;6.40;;;15.00;73.10;;;;;;6048904;23;20304;-91
2021/04/20 18:34:57;;;;;;;8.93;6.57;;;14.90;72.90;;;;;;6135116;23;20037;-95
2021/04/20 18:41:56;;;;;;;8.23;5.70;;;14.80;72.70;;;;;;6022362;23;20229;-94
2021/04/20 18:52:34;;;;;;;7.07;4.95;;;14.60;73.20;;;;;;5906583;24;20026;-89
2021/04/20 18:55:19;;;;;;;9.48;4.95;;;14.50;73.40;;;;;;5933415;23;20013;-92
2021/04/20 18:58:02;;;;;;;;;;;;;;;;;;;;;
2021/04/20 19:00:35;;;;;;;7.30;5.38;;;14.30;73.90;;;;;;6134364;23;20290;-93
2021/04/20 19:03:09;;;;;;;12.07;6.05;;;14.30;73.90;;;;;;6133495;23;20001;-93
2021/04/20 19:16:20;;;;;;;8.85;5.95;;;14.20;74.80;;;;;;6133574;23;20075;-94
2021/04/20 19:29:38;;;;;;;6.35;5.30;;;13.90;76.40;;;;;;6133802;23;20291;-93
2021/04/20 19:32:41;;;;;;;7.18;6.25;;;13.90;76.40;;;;;;6132695;23;20096;-93
2021/04/20 19:35:28;;;;;;;6.13;5.53;;;13.80;76.70;;;;;;6132177;23;20350;-93
2021/04/20 19:38:30;;;;;;;8.60;5.50;;;13.80;77.50;;;;;;6132994;23;20014;-93
2021/04/20 19:41:37;;;;;;;7.03;5.53;;;13.80;77.50;;;;;;6157862;23;20001;-93
2021/04/20 19:44:18;;;;;;;6.65;5.15;;;13.70;77.70;;;;;;6133525;23;20006;-93
2021/04/20 19:47:01;;;;;;;6.63;5.50;;;13.70;78.00;;;;;;6133511;23;20077;-93
2021/04/20 19:50:04;;;;;;;7.20;5.53;;;13.70;79.00;;;;;;6132406;23;20006;-93
2021/04/20 19:52:44;;;;;;;10.45;5.72;;;13.60;78.70;;;;;;6088619;23;20009;-92
2021/04/20 19:55:15;;;;;;;7.22;5.50;;;13.50;79.40;;;;;;6132852;23;20326;-93
2021/04/20 19:58:03;;;;;;;8.85;6.25;;;13.50;79.50;;;;;;6132211;23;20018;-92
2021/04/20 20:00:56;;;;;;;;;;;;;;;;;;;;;
2021/04/20 20:03:41;;;;;;;10.57;6.20;;;13.50;79.90;;;;;;6133474;23;20022;-93
2021/04/20 20:06:29;;;;;;;11.20;5.93;;;13.50;80.20;;;;;;6132177;23;20005;-92
2021/04/20 20:08:55;;;;;;;7.70;6.47;;;13.40;80.20;;;;;;6132729;23;20480;-92
2021/04/20 20:11:50;;;;;;;10.18;6.50;;;13.40;80.50;;;;;;6131877;23;20365;-93
2021/04/20 20:18:15;;;;;;;8.77;7.07;;;13.30;81.20;;;;;;6133792;23;20341;-93
2021/04/20 20:21:07;;;;;;;10.43;6.50;;;13.30;81.40;;;;;;6131670;23;20001;-92
2021/04/20 20:23:57;;;;;;;7.22;6.07;;;13.20;81.70;;;;;;6120258;23;20068;-92
2021/04/20 20:26:25;;;;;;;7.82;5.93;;;13.20;82.20;;;;;;6132734;23;20006;-91
2021/04/20 20:29:23;;;;;;;7.63;5.95;;;13.20;82.60;;;;;;6132418;23;20016;-93
2021/04/20 20:32:13;;;;;;;9.52;6.53;;;13.20;82.70;;;;;;6156524;23;20334;-92
2021/04/20 20:34:48;;;;;;;7.00;5.70;;;13.10;82.90;;;;;;6132986;23;20037;-93
2021/04/20 20:37:20;;;;;;;6.90;5.75;;;13.00;82.80;;;;;;6132404;23;20092;-92
2021/04/20 20:43:43;;;;;;;6.65;5.63;;;13.00;83.40;;;;;;6133884;23;20009;-92
2021/04/20 20:49:52;;;;;;;6.65;5.38;;;13.00;83.40;;;;;;6132773;23;20025;-92
2021/04/20 20:52:47;;;;;;;9.90;6.15;;;12.90;83.40;;;;;;6132096;23;20013;-93
2021/04/20 20:56:31;;;;;;;;;;;;;;;;;;;;;
2021/04/20 20:59:20;;;;;;;8.35;5.40;;;12.90;83.40;;;;;;6044609;23;20209;-92
2021/04/20 21:02:33;;;;;;;7.72;5.95;;;12.80;83.30;;;;;;6020170;23;20015;-94
2021/04/20 22:01:32;;;;;;;15.27;7.65;;;11.80;87.90;;;;;;5959227;24;20012;-93
2021/04/20 23:12:46;;;;;;;;;;;;;;;;;;;;;
2021/04/20 23:39:57;;;;;;;10.02;7.60;;;10.80;91.10;;;;;;6134011;23;20016;-95
2021/04/20 23:52:37;;;;;;;;;;;;;;;;;;;;;
